Terminal Aerodrome Forecast
Issued by NWS

Home | Current Version | Previous Version | Text Only | Print | Product List | Glossary On
Versions: 1 2 3 4 5 6 7 8 9 10 11 12 13
517
FTUS43 KDTX 261720
TAFMBS
TAF
KMBS 261720Z 2618/2718 25013G20KT P6SM SCT035
     FM262000 26015G27KT P6SM BKN040
     FM270000 23010KT P6SM BKN040
     FM271500 24012G20KT P6SM BKN040=

USA.gov is the U.S. government's official web portal to all federal, state and local government web resources and services.